Aérodrome :
LOGIN :

S'inscrire | Disclaimer

   EN    FR    IT 

 










Légende :    VFR   VFR Marginal   IFR   IFR Intensif   IFR Très Intensif
Visi : 
Plafond : 
>= 8 km
>= 3000ft
5 à 8 km
1000 à 3000 ft
1500m à 5 km
500 à 1000 ft
800 à 1500m
200 à 500 ft
< 800m
< 200 ft
Symboles :   Orages  Brouillard  Fortes neiges  Fortes précipitations  Vent > 20 kt
SIGMETs :   Divers  Orages  Givrage  Turbulence  Onde Orograph.  Cendres Volcan.







- Altitude de l'aérodrome : 1411 ft
- Code IATA : GVA


LSGG - Genève Cointrin

DERNIER METAR :
  • 221750Z 25006KT 9999 -SHRA SCT020 BKN030 BKN040 10/08 Q1017 TEMPO 27015G25KT

METARs EXPIRÉS :
  • 221720Z 22015G25KT 9999 -SHRA SCT020 SCT030 BKN040 12/06 Q1016 TEMPO 27015G25KT
  • 221650Z 25010KT 9999 VCSH SCT020 SCT030 BKN040 12/07 Q1016 TEMPO 27015G25KT
  • 221620Z 20012KT 9999 -SHRA SCT020 SCT030 BKN050 11/08 Q1016 TEMPO 27015G25KT
  • 221550Z 24008KT 9999 -SHRA FEW010 SCT025 BKN050 11/09 Q1016 TEMPO 27015G25KT
  • 221520Z 20015KT 9999 -SHRA FEW010 SCT025 BKN050 10/09 Q1015 TEMPO 27015G25KT

TAF TAF LSGG
Valide du 22 à 18h jusqu'au 24 à 00h UTC


221725Z 2218/2324 23010KT 9999 -SHRA FEW010 SCT025 BKN040 TX09/2315Z TN03/2306Z
BECMG 2222/2224 VRB03KT NSW
PROB30 2306/2309 1500 BCFG
ATIS : +41 22 417 40 81
Pas de NOTAMs connus pour ce terrain.



MET'MAP, la Météo Aéronautique d'un coup d'oeil ! - Copyright ORBIFLY Décembre 2007 - Disclaimer

ORBIFLY MET'MAP TEAM :

Programmation & Développement : Alexandra Zaïnal
Conception & Développement : Baudouin d'Aumeries
Co-Programmation & Développement : Marc-Olivier Méhu
Soutien technique & logistique : Manuel Goepfert

Contact : metmap@orbifly.com




SOURCES & CREDITS :

   NOAA